createdAt,value
2018-09-21T00:00:39.691Z,100422.22
2018-09-21T00:05:41.899Z,100408.98
2018-09-21T00:10:44.321Z,100404.72
2018-09-21T00:15:46.473Z,100390.64
2018-09-21T00:20:49.015Z,100383.41
2018-09-21T00:25:51.161Z,100373.63
2018-09-21T00:30:53.345Z,100356.14
2018-09-21T00:35:55.452Z,100351.84
2018-09-21T00:40:57.571Z,100348.86
2018-09-21T00:45:59.697Z,100336.48
2018-09-21T00:51:01.893Z,100312.59
2018-09-21T00:56:04.083Z,100300.23
2018-09-21T01:01:06.274Z,100291.32
2018-09-21T01:06:08.466Z,100286.23
2018-09-21T01:11:10.606Z,100269.13
2018-09-21T01:16:12.790Z,100267.45
2018-09-21T01:21:14.963Z,100271.30
2018-09-21T01:26:17.146Z,100264.97
2018-09-21T01:31:19.259Z,100263.25
2018-09-21T01:36:21.429Z,100250.45
2018-09-21T01:41:23.593Z,100244.52
2018-09-21T01:46:25.729Z,100249.22
2018-09-21T01:51:27.875Z,100235.56
2018-09-21T01:56:30.024Z,100224.13
2018-09-21T02:01:32.166Z,100205.33
2018-09-21T02:06:34.324Z,100201.05
2018-09-21T02:11:36.485Z,100189.54
2018-09-21T02:16:38.676Z,100194.69
2018-09-21T02:21:40.788Z,100178.53
2018-09-21T02:26:42.956Z,100171.22
2018-09-21T02:31:45.358Z,100164.40
2018-09-21T02:36:47.531Z,100151.63
2018-09-21T02:41:49.692Z,100157.20
2018-09-21T02:46:51.877Z,100143.09
2018-09-21T02:51:54.000Z,100130.34
2018-09-21T02:56:56.203Z,100117.54
2018-09-21T03:01:58.308Z,100108.20
2018-09-21T03:07:00.480Z,100097.53
2018-09-21T03:12:02.630Z,100085.13
2018-09-21T03:17:04.935Z,100075.78
2018-09-21T03:22:07.156Z,100061.72
2018-09-21T03:27:09.313Z,100046.86
2018-09-21T03:32:11.458Z,100033.58
2018-09-21T03:37:13.600Z,100023.72
2018-09-21T03:42:15.723Z,100029.36
2018-09-21T03:47:17.888Z,100008.02
2018-09-21T03:52:20.023Z,99985.41
2018-09-21T03:57:22.135Z,99970.08
2018-09-21T04:02:24.248Z,99953.88
2018-09-21T04:07:26.398Z,99953.88
2018-09-21T04:12:28.581Z,99935.97
2018-09-21T04:17:30.703Z,99931.67
2018-09-21T04:22:33.154Z,99901.37
2018-09-21T04:27:35.675Z,99904.42
2018-09-21T04:32:37.850Z,99888.70
2018-09-21T04:37:39.994Z,99889.55
2018-09-21T04:42:42.110Z,99885.27
2018-09-21T04:47:44.237Z,99885.22
2018-09-21T04:52:46.365Z,99862.25
2018-09-21T04:57:48.518Z,99840.11
2018-09-21T05:02:50.636Z,99813.23
2018-09-21T05:07:52.881Z,99808.10
2018-09-21T05:12:55.021Z,99799.15
2018-09-21T05:17:57.231Z,99798.70
2018-09-21T05:22:59.374Z,99784.02
2018-09-21T05:28:01.497Z,99788.61
2018-09-21T05:33:03.627Z,99762.63
2018-09-21T05:38:05.797Z,99760.09
2018-09-21T05:43:07.906Z,99748.53
2018-09-21T05:48:10.002Z,99740.72
2018-09-21T05:53:12.155Z,99736.80
2018-09-21T05:58:14.352Z,99726.08
2018-09-21T06:03:16.508Z,99729.45
2018-09-21T06:08:18.670Z,99718.94
2018-09-21T06:13:20.821Z,99714.19
2018-09-21T06:18:23.005Z,99715.05
2018-09-21T06:23:25.515Z,99695.28
2018-09-21T06:28:27.648Z,99676.77
2018-09-21T06:33:29.822Z,99653.70
2018-09-21T06:38:31.993Z,99639.69
2018-09-21T06:43:34.179Z,99622.92
2018-09-21T06:48:36.365Z,99598.49
2018-09-21T06:53:38.620Z,99576.94
2018-09-21T06:58:40.934Z,99554.70
2018-09-21T07:03:43.067Z,99566.07
2018-09-21T07:08:45.286Z,99572.44
2018-09-21T07:13:47.469Z,99586.37
2018-09-21T07:18:49.631Z,99563.35
2018-09-21T07:23:51.796Z,99552.83
2018-09-21T07:28:55.032Z,99563.53
2018-09-21T07:33:57.308Z,99554.92
2018-09-21T07:38:59.454Z,99557.73
2018-09-21T07:44:01.671Z,99543.94
2018-09-21T07:49:03.879Z,99553.77
2018-09-21T07:54:06.192Z,99546.47
2018-09-21T07:59:08.362Z,99534.67
2018-09-21T08:04:10.771Z,99539.75
2018-09-21T08:09:12.951Z,99521.70
2018-09-21T08:14:15.114Z,99483.95
2018-09-21T08:19:17.300Z,99490.98
2018-09-21T08:24:19.483Z,99492.55
2018-09-21T08:29:21.637Z,99491.49
2018-09-21T08:34:23.816Z,99491.20
2018-09-21T08:39:26.583Z,99473.68
2018-09-21T08:44:28.773Z,99482.59
2018-09-21T08:49:30.927Z,99479.59
2018-09-21T08:54:33.092Z,99468.74
2018-09-21T08:59:35.487Z,99475.58
2018-09-21T09:04:37.719Z,99482.87
2018-09-21T09:09:39.991Z,99442.09
2018-09-21T09:14:42.355Z,99455.62
2018-09-21T09:19:44.895Z,99458.25
2018-09-21T09:24:47.046Z,99463.02
2018-09-21T09:29:49.236Z,99492.22
2018-09-21T09:34:51.402Z,99509.17
2018-09-21T09:39:53.565Z,99526.66
2018-09-21T09:44:55.770Z,99518.86
2018-09-21T09:49:57.926Z,99541.67
2018-09-21T09:55:00.666Z,99566.84
2018-09-21T10:00:03.115Z,99597.21
2018-09-21T10:05:05.575Z,99590.60
2018-09-21T10:10:07.812Z,99588.78
2018-09-21T10:15:10.002Z,99616.24
2018-09-21T10:20:12.157Z,99615.47
2018-09-21T10:25:14.306Z,99618.22
2018-09-21T10:30:16.420Z,99615.13
2018-09-21T10:35:18.955Z,99614.62
2018-09-21T10:40:21.452Z,99665.04
2018-09-21T10:45:23.551Z,99661.92
2018-09-21T10:50:25.686Z,99682.35
2018-09-21T10:55:29.587Z,99672.41
2018-09-21T11:00:31.792Z,99710.16
2018-09-21T11:05:33.961Z,99716.95
2018-09-21T11:10:36.204Z,99739.05
2018-09-21T11:15:38.345Z,99741.66
2018-09-21T11:20:40.499Z,99734.20
2018-09-21T11:25:42.688Z,99747.80
2018-09-21T11:30:44.919Z,99760.63
2018-09-21T11:35:47.126Z,99769.14
2018-09-21T11:40:49.395Z,99780.12
2018-09-21T11:45:51.534Z,99786.15
2018-09-21T11:50:53.735Z,99788.31
2018-09-21T11:55:55.940Z,99811.27
2018-09-21T12:00:58.098Z,99837.61
2018-09-21T12:06:00.327Z,99808.67
2018-09-21T12:11:02.548Z,99819.44
2018-09-21T12:16:05.534Z,99818.05
2018-09-21T12:21:07.688Z,99810.37
2018-09-21T12:26:10.062Z,99826.17
2018-09-21T12:31:12.263Z,99818.11
2018-09-21T12:36:14.542Z,99846.17
2018-09-21T12:41:16.689Z,99850.89
2018-09-21T12:46:23.354Z,99842.81
2018-09-21T12:51:25.795Z,99847.08
2018-09-21T12:56:28.130Z,99867.89
2018-09-21T13:01:30.266Z,99879.81
2018-09-21T13:06:32.466Z,99854.30
2018-09-21T13:11:34.735Z,99844.12
2018-09-21T13:16:36.969Z,99857.70
2018-09-21T13:21:39.192Z,99858.95
2018-09-21T13:26:41.402Z,99888.27
2018-09-21T13:31:43.587Z,99901.36
2018-09-21T13:36:45.771Z,99894.55
2018-09-21T13:41:47.916Z,99898.30
2018-09-21T13:46:50.103Z,99893.16
2018-09-21T13:51:52.657Z,99897.09
2018-09-21T13:56:54.749Z,99902.70
2018-09-21T14:01:56.928Z,99920.55
2018-09-21T14:06:59.105Z,99922.27
2018-09-21T14:12:01.373Z,99909.05
2018-09-21T14:17:03.683Z,99924.63
2018-09-21T14:22:05.899Z,99915.30
2018-09-21T14:27:08.106Z,99918.36
2018-09-21T14:32:10.413Z,99940.55
2018-09-21T14:37:12.632Z,99949.84
2018-09-21T14:42:14.811Z,99940.83
2018-09-21T14:47:17.008Z,99948.00
2018-09-21T14:52:19.181Z,99969.40
2018-09-21T14:57:21.375Z,99992.44
2018-09-21T15:02:23.550Z,100006.84
2018-09-21T15:07:25.718Z,100019.91
2018-09-21T15:12:27.921Z,100005.48
2018-09-21T15:17:30.086Z,100004.58
2018-09-21T15:22:32.273Z,100006.70
2018-09-21T15:27:34.464Z,100022.44
2018-09-21T15:32:36.648Z,100028.88
2018-09-21T15:37:38.791Z,100025.75
2018-09-21T15:42:41.033Z,100032.92
2018-09-21T15:47:43.185Z,100032.01
2018-09-21T15:52:45.409Z,100030.37
2018-09-21T15:57:47.585Z,100024.08
2018-09-21T16:02:49.768Z,100031.67
2018-09-21T16:07:51.940Z,100030.89
2018-09-21T16:12:54.166Z,100034.71
2018-09-21T16:17:56.383Z,100026.63
2018-09-21T16:22:58.547Z,100033.83
2018-09-21T16:28:00.752Z,100054.16
2018-09-21T16:33:03.002Z,100043.78
2018-09-21T16:38:05.221Z,100071.67
2018-09-21T16:43:07.413Z,100103.47
2018-09-21T16:48:09.597Z,100147.66
2018-09-21T16:53:11.789Z,100152.03
2018-09-21T16:58:13.955Z,100152.21
2018-09-21T17:03:16.137Z,100151.27
2018-09-21T17:08:18.352Z,100145.02
2018-09-21T17:13:20.832Z,100156.75
2018-09-21T17:18:23.011Z,100153.59
2018-09-21T17:23:25.312Z,100159.16
2018-09-21T17:28:27.550Z,100152.55
2018-09-21T17:33:30.727Z,100163.59
2018-09-21T17:38:32.916Z,100162.72
2018-09-21T17:43:35.104Z,100178.95
2018-09-21T17:48:37.343Z,100172.48
2018-09-21T17:53:39.511Z,100182.08
2018-09-21T17:58:41.711Z,100189.52
2018-09-21T18:03:43.894Z,100187.47
2018-09-21T18:08:46.158Z,100201.59
2018-09-21T18:13:48.413Z,100208.63
2018-09-21T18:18:51.249Z,100212.86
2018-09-21T18:23:53.545Z,100230.95
2018-09-21T18:28:55.912Z,100272.74
2018-09-21T18:33:58.185Z,100278.84
2018-09-21T18:39:00.562Z,100297.38
2018-09-21T18:44:03.242Z,100325.00
2018-09-21T18:49:05.801Z,100331.27
2018-09-21T18:54:08.131Z,100308.59
2018-09-21T18:59:11.438Z,100314.56
2018-09-21T19:04:14.087Z,100318.86
2018-09-21T19:09:16.507Z,100323.04
2018-09-21T19:14:20.102Z,100331.47
2018-09-21T19:19:22.646Z,100314.13
2018-09-21T19:24:25.083Z,100294.55
2018-09-21T19:29:27.673Z,100295.42
2018-09-21T19:34:31.002Z,100290.39
2018-09-21T19:39:34.022Z,100298.64
2018-09-21T19:44:36.488Z,100299.39
2018-09-21T19:49:39.092Z,100305.56
2018-09-21T19:54:41.628Z,100317.20
2018-09-21T19:59:44.008Z,100310.14
2018-09-21T20:04:46.537Z,100375.48
2018-09-21T20:09:49.636Z,100402.48
2018-09-21T20:14:52.112Z,100413.99
2018-09-21T20:19:55.707Z,100422.64
2018-09-21T20:24:58.064Z,100425.45
2018-09-21T20:30:06.091Z,100416.69
2018-09-21T20:35:08.355Z,100420.95
2018-09-21T20:40:10.600Z,100400.16
2018-09-21T20:45:13.020Z,100410.92
2018-09-21T20:50:15.288Z,100391.70
2018-09-21T20:55:17.570Z,100363.50
2018-09-21T21:00:19.774Z,100396.36
2018-09-21T21:05:22.024Z,100397.71
2018-09-21T21:10:24.254Z,100418.80
2018-09-21T21:15:26.515Z,100432.05
2018-09-21T21:20:28.711Z,100433.92
2018-09-21T21:25:30.874Z,100426.04
2018-09-21T21:30:33.071Z,100405.41
2018-09-21T21:35:35.281Z,100410.82
2018-09-21T21:40:37.858Z,100419.77
2018-09-21T21:45:40.043Z,100430.91
2018-09-21T21:50:42.234Z,100432.84
2018-09-21T21:55:44.451Z,100444.25
2018-09-21T22:00:52.393Z,100456.06
2018-09-21T22:05:54.549Z,100430.69
2018-09-21T22:10:56.675Z,100425.12
2018-09-21T22:15:58.863Z,100438.60
2018-09-21T22:21:01.023Z,100451.79
2018-09-21T22:26:03.612Z,100449.40
2018-09-21T22:31:05.772Z,100451.01
2018-09-21T22:36:08.145Z,100458.41
2018-09-21T22:41:10.304Z,100475.86
2018-09-21T22:46:12.433Z,100483.01
2018-09-21T22:51:15.666Z,100488.81
2018-09-21T22:56:17.873Z,100493.81
2018-09-21T23:01:20.039Z,100474.41
2018-09-21T23:06:22.251Z,100484.64
2018-09-21T23:11:24.611Z,100487.74
2018-09-21T23:16:26.818Z,100479.48
2018-09-21T23:21:28.979Z,100479.80
2018-09-21T23:26:31.261Z,100479.42
2018-09-21T23:31:33.506Z,100503.04
2018-09-21T23:36:35.621Z,100502.64
2018-09-21T23:41:38.275Z,100507.77
2018-09-21T23:46:40.431Z,100519.45
2018-09-21T23:51:42.596Z,100520.78
2018-09-21T23:56:45.383Z,100531.11
